sensor_id;sensor_type;location;lat;lon;timestamp;temperature;humidity
13433;DHT22;6789;47.678;9.158;2023-04-24T00:04:44;11.50;99.90
13433;DHT22;6789;47.678;9.158;2023-04-24T00:09:36;11.40;99.90
13433;DHT22;6789;47.678;9.158;2023-04-24T00:14:48;11.40;99.90
13433;DHT22;6789;47.678;9.158;2023-04-24T00:20:12;11.40;99.90
13433;DHT22;6789;47.678;9.158;2023-04-24T00:25:06;11.40;99.90
13433;DHT22;6789;47.678;9.158;2023-04-24T00:29:58;11.60;99.90
13433;DHT22;6789;47.678;9.158;2023-04-24T00:34:50;11.50;99.90
13433;DHT22;6789;47.678;9.158;2023-04-24T00:39:41;11.40;99.90
13433;DHT22;6789;47.678;9.158;2023-04-24T00:44:33;11.40;99.90
13433;DHT22;6789;47.678;9.158;2023-04-24T00:49:26;11.30;99.90
13433;DHT22;6789;47.678;9.158;2023-04-24T00:54:18;11.30;99.90
13433;DHT22;6789;47.678;9.158;2023-04-24T00:59:11;11.20;99.90
13433;DHT22;6789;47.678;9.158;2023-04-24T01:04:04;11.20;99.90
13433;DHT22;6789;47.678;9.158;2023-04-24T01:08:56;11.10;99.90
13433;DHT22;6789;47.678;9.158;2023-04-24T01:13:49;11.10;99.90
13433;DHT22;6789;47.678;9.158;2023-04-24T01:18:41;11.10;99.90
13433;DHT22;6789;47.678;9.158;2023-04-24T01:23:33;11.00;99.90
13433;DHT22;6789;47.678;9.158;2023-04-24T01:28:26;11.00;99.90
13433;DHT22;6789;47.678;9.158;2023-04-24T01:33:18;11.00;99.90
13433;DHT22;6789;47.678;9.158;2023-04-24T01:38:09;11.00;99.90
13433;DHT22;6789;47.678;9.158;2023-04-24T01:43:02;11.00;99.90
13433;DHT22;6789;47.678;9.158;2023-04-24T01:47:54;10.90;99.90
13433;DHT22;6789;47.678;9.158;2023-04-24T01:52:45;10.80;99.90
13433;DHT22;6789;47.678;9.158;2023-04-24T01:57:38;10.80;99.90
13433;DHT22;6789;47.678;9.158;2023-04-24T02:02:30;10.70;99.90
13433;DHT22;6789;47.678;9.158;2023-04-24T02:07:22;10.70;99.90
13433;DHT22;6789;47.678;9.158;2023-04-24T02:12:17;10.70;99.90
13433;DHT22;6789;47.678;9.158;2023-04-24T02:17:09;10.60;99.90
13433;DHT22;6789;47.678;9.158;2023-04-24T02:22:01;10.60;99.90
13433;DHT22;6789;47.678;9.158;2023-04-24T02:26:53;10.60;99.90
13433;DHT22;6789;47.678;9.158;2023-04-24T02:31:44;10.70;99.90
13433;DHT22;6789;47.678;9.158;2023-04-24T02:36:46;10.70;99.90
13433;DHT22;6789;47.678;9.158;2023-04-24T02:41:37;10.70;99.90
13433;DHT22;6789;47.678;9.158;2023-04-24T02:46:29;10.70;99.90
13433;DHT22;6789;47.678;9.158;2023-04-24T02:51:21;10.60;99.90
13433;DHT22;6789;47.678;9.158;2023-04-24T02:56:13;10.60;99.90
13433;DHT22;6789;47.678;9.158;2023-04-24T03:01:04;10.50;99.90
13433;DHT22;6789;47.678;9.158;2023-04-24T03:05:56;10.50;99.90
13433;DHT22;6789;47.678;9.158;2023-04-24T03:10:48;10.60;99.90
13433;DHT22;6789;47.678;9.158;2023-04-24T03:15:40;10.70;99.90
13433;DHT22;6789;47.678;9.158;2023-04-24T03:20:32;10.70;99.90
13433;DHT22;6789;47.678;9.158;2023-04-24T03:25:24;10.60;99.90
13433;DHT22;6789;47.678;9.158;2023-04-24T03:30:16;10.60;99.90
13433;DHT22;6789;47.678;9.158;2023-04-24T03:35:08;10.40;99.90
13433;DHT22;6789;47.678;9.158;2023-04-24T03:40:01;10.30;99.90
13433;DHT22;6789;47.678;9.158;2023-04-24T03:44:53;10.30;99.90
13433;DHT22;6789;47.678;9.158;2023-04-24T03:49:45;10.30;99.90
13433;DHT22;6789;47.678;9.158;2023-04-24T03:54:37;10.30;99.90
13433;DHT22;6789;47.678;9.158;2023-04-24T03:59:28;10.30;99.90
13433;DHT22;6789;47.678;9.158;2023-04-24T04:04:20;10.40;99.90
13433;DHT22;6789;47.678;9.158;2023-04-24T04:09:13;10.40;99.90
13433;DHT22;6789;47.678;9.158;2023-04-24T04:14:06;10.30;99.90
13433;DHT22;6789;47.678;9.158;2023-04-24T04:18:57;10.20;99.90
13433;DHT22;6789;47.678;9.158;2023-04-24T04:23:50;10.30;99.90
13433;DHT22;6789;47.678;9.158;2023-04-24T04:28:41;10.30;99.90
13433;DHT22;6789;47.678;9.158;2023-04-24T04:33:34;10.20;99.90
13433;DHT22;6789;47.678;9.158;2023-04-24T04:38:27;10.30;99.90
13433;DHT22;6789;47.678;9.158;2023-04-24T04:43:21;10.30;99.90
13433;DHT22;6789;47.678;9.158;2023-04-24T04:48:13;10.40;99.90
13433;DHT22;6789;47.678;9.158;2023-04-24T04:53:05;10.40;99.90
13433;DHT22;6789;47.678;9.158;2023-04-24T04:57:57;10.40;99.90
13433;DHT22;6789;47.678;9.158;2023-04-24T05:02:51;10.40;99.90
13433;DHT22;6789;47.678;9.158;2023-04-24T05:07:44;10.60;99.90
13433;DHT22;6789;47.678;9.158;2023-04-24T05:12:35;10.50;99.90
13433;DHT22;6789;47.678;9.158;2023-04-24T05:17:28;10.50;99.90
13433;DHT22;6789;47.678;9.158;2023-04-24T05:22:21;10.50;99.90
13433;DHT22;6789;47.678;9.158;2023-04-24T05:27:14;10.40;99.90
13433;DHT22;6789;47.678;9.158;2023-04-24T05:32:07;10.40;99.90
13433;DHT22;6789;47.678;9.158;2023-04-24T05:37:01;10.30;99.90
13433;DHT22;6789;47.678;9.158;2023-04-24T05:41:53;10.20;99.90
13433;DHT22;6789;47.678;9.158;2023-04-24T05:46:45;10.10;99.90
13433;DHT22;6789;47.678;9.158;2023-04-24T05:51:37;10.10;99.90
13433;DHT22;6789;47.678;9.158;2023-04-24T05:56:31;10.20;99.90
13433;DHT22;6789;47.678;9.158;2023-04-24T06:01:22;10.40;99.90
13433;DHT22;6789;47.678;9.158;2023-04-24T06:06:15;10.70;99.90
13433;DHT22;6789;47.678;9.158;2023-04-24T06:11:07;10.90;99.90
13433;DHT22;6789;47.678;9.158;2023-04-24T06:16:08;11.00;99.90
13433;DHT22;6789;47.678;9.158;2023-04-24T06:21:00;11.00;99.90
13433;DHT22;6789;47.678;9.158;2023-04-24T06:25:52;12.00;99.90
13433;DHT22;6789;47.678;9.158;2023-04-24T06:30:57;12.10;99.90
13433;DHT22;6789;47.678;9.158;2023-04-24T06:35:49;12.60;99.90
13433;DHT22;6789;47.678;9.158;2023-04-24T06:40:42;12.40;99.90
13433;DHT22;6789;47.678;9.158;2023-04-24T06:45:38;12.20;99.90
13433;DHT22;6789;47.678;9.158;2023-04-24T06:50:31;12.80;99.90
13433;DHT22;6789;47.678;9.158;2023-04-24T06:55:23;13.50;99.90
13433;DHT22;6789;47.678;9.158;2023-04-24T07:00:15;13.30;99.90
13433;DHT22;6789;47.678;9.158;2023-04-24T07:05:08;13.40;99.90
13433;DHT22;6789;47.678;9.158;2023-04-24T07:10:00;13.90;99.90
13433;DHT22;6789;47.678;9.158;2023-04-24T07:14:52;14.10;99.90
13433;DHT22;6789;47.678;9.158;2023-04-24T07:19:44;14.20;99.90
13433;DHT22;6789;47.678;9.158;2023-04-24T07:24:37;14.10;99.90
13433;DHT22;6789;47.678;9.158;2023-04-24T07:29:37;14.00;99.90
13433;DHT22;6789;47.678;9.158;2023-04-24T07:34:43;13.90;99.90
13433;DHT22;6789;47.678;9.158;2023-04-24T07:39:37;13.70;99.90
13433;DHT22;6789;47.678;9.158;2023-04-24T07:44:29;13.70;99.90
13433;DHT22;6789;47.678;9.158;2023-04-24T07:49:21;13.90;99.90
13433;DHT22;6789;47.678;9.158;2023-04-24T07:54:13;13.50;99.90
13433;DHT22;6789;47.678;9.158;2023-04-24T07:59:06;13.30;99.90
13433;DHT22;6789;47.678;9.158;2023-04-24T08:04:00;13.60;99.90
13433;DHT22;6789;47.678;9.158;2023-04-24T08:08:52;13.70;99.90
13433;DHT22;6789;47.678;9.158;2023-04-24T08:13:45;13.60;99.90
13433;DHT22;6789;47.678;9.158;2023-04-24T08:18:37;13.00;99.90
13433;DHT22;6789;47.678;9.158;2023-04-24T08:23:29;12.90;99.90
13433;DHT22;6789;47.678;9.158;2023-04-24T08:28:25;12.80;99.90
13433;DHT22;6789;47.678;9.158;2023-04-24T08:33:31;12.50;99.90
13433;DHT22;6789;47.678;9.158;2023-04-24T08:38:29;12.40;99.90
13433;DHT22;6789;47.678;9.158;2023-04-24T08:43:37;12.40;99.90
13433;DHT22;6789;47.678;9.158;2023-04-24T08:48:33;12.40;99.90
13433;DHT22;6789;47.678;9.158;2023-04-24T08:53:26;12.50;99.90
13433;DHT22;6789;47.678;9.158;2023-04-24T08:58:18;12.50;99.90
13433;DHT22;6789;47.678;9.158;2023-04-24T09:03:11;12.60;99.90
13433;DHT22;6789;47.678;9.158;2023-04-24T09:08:04;12.60;99.90
13433;DHT22;6789;47.678;9.158;2023-04-24T09:12:59;12.90;99.90
13433;DHT22;6789;47.678;9.158;2023-04-24T09:17:55;12.90;99.90
13433;DHT22;6789;47.678;9.158;2023-04-24T09:22:47;13.10;99.90
13433;DHT22;6789;47.678;9.158;2023-04-24T09:27:44;13.20;99.90
13433;DHT22;6789;47.678;9.158;2023-04-24T09:32:36;13.10;99.90
13433;DHT22;6789;47.678;9.158;2023-04-24T09:37:29;13.20;99.90
13433;DHT22;6789;47.678;9.158;2023-04-24T09:42:29;13.40;99.90
13433;DHT22;6789;47.678;9.158;2023-04-24T09:47:23;13.50;99.90
13433;DHT22;6789;47.678;9.158;2023-04-24T09:52:15;13.20;99.90
13433;DHT22;6789;47.678;9.158;2023-04-24T09:57:09;13.30;99.90
13433;DHT22;6789;47.678;9.158;2023-04-24T10:02:20;13.60;99.90
13433;DHT22;6789;47.678;9.158;2023-04-24T10:07:15;13.90;99.90
13433;DHT22;6789;47.678;9.158;2023-04-24T10:12:08;14.20;99.90
13433;DHT22;6789;47.678;9.158;2023-04-24T10:17:03;14.50;99.90
13433;DHT22;6789;47.678;9.158;2023-04-24T10:22:10;14.90;99.90
13433;DHT22;6789;47.678;9.158;2023-04-24T10:27:31;14.70;99.90
13433;DHT22;6789;47.678;9.158;2023-04-24T10:33:05;14.50;99.90
13433;DHT22;6789;47.678;9.158;2023-04-24T10:38:18;14.50;99.90
13433;DHT22;6789;47.678;9.158;2023-04-24T10:43:19;13.90;99.90
13433;DHT22;6789;47.678;9.158;2023-04-24T10:48:26;13.70;99.90
13433;DHT22;6789;47.678;9.158;2023-04-24T10:53:24;13.60;99.90
13433;DHT22;6789;47.678;9.158;2023-04-24T10:58:41;14.00;99.90
13433;DHT22;6789;47.678;9.158;2023-04-24T11:03:51;14.40;99.90
13433;DHT22;6789;47.678;9.158;2023-04-24T11:09:26;14.30;99.90
13433;DHT22;6789;47.678;9.158;2023-04-24T11:20:16;14.60;99.90
13433;DHT22;6789;47.678;9.158;2023-04-24T11:25:28;14.70;99.90
13433;DHT22;6789;47.678;9.158;2023-04-24T11:30:49;15.00;99.90
13433;DHT22;6789;47.678;9.158;2023-04-24T11:35:55;14.90;99.90
13433;DHT22;6789;47.678;9.158;2023-04-24T11:40:49;14.50;99.90
13433;DHT22;6789;47.678;9.158;2023-04-24T11:45:48;14.00;99.90
13433;DHT22;6789;47.678;9.158;2023-04-24T11:50:46;14.20;99.90
13433;DHT22;6789;47.678;9.158;2023-04-24T11:55:52;14.10;99.90
13433;DHT22;6789;47.678;9.158;2023-04-24T12:00:57;14.40;99.90
13433;DHT22;6789;47.678;9.158;2023-04-24T12:06:10;14.20;99.90
13433;DHT22;6789;47.678;9.158;2023-04-24T12:11:17;14.00;99.90
13433;DHT22;6789;47.678;9.158;2023-04-24T12:16:15;14.50;99.90
13433;DHT22;6789;47.678;9.158;2023-04-24T12:21:22;14.90;99.90
13433;DHT22;6789;47.678;9.158;2023-04-24T12:26:31;14.40;99.90
13433;DHT22;6789;47.678;9.158;2023-04-24T12:31:37;14.50;99.90
13433;DHT22;6789;47.678;9.158;2023-04-24T12:36:43;14.40;99.90
13433;DHT22;6789;47.678;9.158;2023-04-24T12:41:57;14.50;99.90
13433;DHT22;6789;47.678;9.158;2023-04-24T12:46:51;14.60;99.90
13433;DHT22;6789;47.678;9.158;2023-04-24T12:51:57;14.80;99.90
13433;DHT22;6789;47.678;9.158;2023-04-24T12:56:51;15.10;99.90
13433;DHT22;6789;47.678;9.158;2023-04-24T13:01:44;14.90;99.90
13433;DHT22;6789;47.678;9.158;2023-04-24T13:06:37;14.90;99.90
13433;DHT22;6789;47.678;9.158;2023-04-24T13:11:29;15.20;99.90
13433;DHT22;6789;47.678;9.158;2023-04-24T13:16:30;15.30;99.90
13433;DHT22;6789;47.678;9.158;2023-04-24T13:21:41;15.40;99.90
13433;DHT22;6789;47.678;9.158;2023-04-24T13:26:50;15.50;99.90
13433;DHT22;6789;47.678;9.158;2023-04-24T13:31:57;15.70;99.90
13433;DHT22;6789;47.678;9.158;2023-04-24T13:36:54;15.30;99.90
13433;DHT22;6789;47.678;9.158;2023-04-24T13:41:51;15.40;99.90
13433;DHT22;6789;47.678;9.158;2023-04-24T13:46:57;15.30;99.90
13433;DHT22;6789;47.678;9.158;2023-04-24T13:51:54;15.50;99.90
13433;DHT22;6789;47.678;9.158;2023-04-24T13:56:47;15.70;99.90
13433;DHT22;6789;47.678;9.158;2023-04-24T14:01:39;15.90;99.90
13433;DHT22;6789;47.678;9.158;2023-04-24T14:06:33;15.70;99.90
13433;DHT22;6789;47.678;9.158;2023-04-24T14:11:39;15.50;99.90
13433;DHT22;6789;47.678;9.158;2023-04-24T14:16:37;15.60;99.90
13433;DHT22;6789;47.678;9.158;2023-04-24T14:21:30;15.30;99.90
13433;DHT22;6789;47.678;9.158;2023-04-24T14:26:24;15.50;99.90
13433;DHT22;6789;47.678;9.158;2023-04-24T14:31:17;15.40;99.90
13433;DHT22;6789;47.678;9.158;2023-04-24T14:36:13;15.80;99.90
13433;DHT22;6789;47.678;9.158;2023-04-24T14:41:07;15.80;99.90
13433;DHT22;6789;47.678;9.158;2023-04-24T14:46:04;15.30;99.90
13433;DHT22;6789;47.678;9.158;2023-04-24T14:51:10;15.40;99.90
13433;DHT22;6789;47.678;9.158;2023-04-24T14:56:06;15.10;99.90
13433;DHT22;6789;47.678;9.158;2023-04-24T15:00:59;15.00;99.90
13433;DHT22;6789;47.678;9.158;2023-04-24T15:05:56;14.90;99.90
13433;DHT22;6789;47.678;9.158;2023-04-24T15:10:50;14.70;99.90
13433;DHT22;6789;47.678;9.158;2023-04-24T15:15:55;14.40;99.90
13433;DHT22;6789;47.678;9.158;2023-04-24T15:20:52;14.20;99.90
13433;DHT22;6789;47.678;9.158;2023-04-24T15:25:45;14.10;99.90
13433;DHT22;6789;47.678;9.158;2023-04-24T15:30:45;14.30;99.90
13433;DHT22;6789;47.678;9.158;2023-04-24T15:35:41;14.50;99.90
13433;DHT22;6789;47.678;9.158;2023-04-24T15:40:33;14.60;99.90
13433;DHT22;6789;47.678;9.158;2023-04-24T15:45:29;14.90;99.90
13433;DHT22;6789;47.678;9.158;2023-04-24T15:50:21;15.10;99.90
13433;DHT22;6789;47.678;9.158;2023-04-24T15:55:14;15.00;99.90
13433;DHT22;6789;47.678;9.158;2023-04-24T16:00:20;14.80;99.90
13433;DHT22;6789;47.678;9.158;2023-04-24T16:05:12;14.80;99.90
13433;DHT22;6789;47.678;9.158;2023-04-24T16:10:18;14.60;99.90
13433;DHT22;6789;47.678;9.158;2023-04-24T16:15:10;14.40;99.90
13433;DHT22;6789;47.678;9.158;2023-04-24T16:20:03;14.10;99.90
13433;DHT22;6789;47.678;9.158;2023-04-24T16:24:55;14.10;99.90
13433;DHT22;6789;47.678;9.158;2023-04-24T16:29:48;14.10;99.90
13433;DHT22;6789;47.678;9.158;2023-04-24T16:34:41;14.20;99.90
13433;DHT22;6789;47.678;9.158;2023-04-24T16:39:33;14.10;99.90
13433;DHT22;6789;47.678;9.158;2023-04-24T16:44:25;14.20;99.90
13433;DHT22;6789;47.678;9.158;2023-04-24T16:49:18;14.20;99.90
13433;DHT22;6789;47.678;9.158;2023-04-24T16:54:13;14.40;99.90
13433;DHT22;6789;47.678;9.158;2023-04-24T16:59:06;14.40;99.90
13433;DHT22;6789;47.678;9.158;2023-04-24T17:03:58;14.20;99.90
13433;DHT22;6789;47.678;9.158;2023-04-24T17:08:52;14.00;99.90
13433;DHT22;6789;47.678;9.158;2023-04-24T17:13:45;13.70;99.90
13433;DHT22;6789;47.678;9.158;2023-04-24T17:18:44;13.60;99.90
13433;DHT22;6789;47.678;9.158;2023-04-24T17:23:37;13.50;99.90
13433;DHT22;6789;47.678;9.158;2023-04-24T17:28:32;13.50;99.90
13433;DHT22;6789;47.678;9.158;2023-04-24T17:33:39;13.50;99.90
13433;DHT22;6789;47.678;9.158;2023-04-24T17:38:31;13.60;99.90
13433;DHT22;6789;47.678;9.158;2023-04-24T17:43:24;13.60;99.90
13433;DHT22;6789;47.678;9.158;2023-04-24T17:48:17;13.30;99.90
13433;DHT22;6789;47.678;9.158;2023-04-24T17:53:34;13.20;99.90
13433;DHT22;6789;47.678;9.158;2023-04-24T17:58:26;13.20;99.90
13433;DHT22;6789;47.678;9.158;2023-04-24T18:03:18;13.10;99.90
13433;DHT22;6789;47.678;9.158;2023-04-24T18:08:24;12.90;99.90
13433;DHT22;6789;47.678;9.158;2023-04-24T18:13:30;12.70;99.90
13433;DHT22;6789;47.678;9.158;2023-04-24T18:18:35;12.40;99.90
13433;DHT22;6789;47.678;9.158;2023-04-24T18:23:28;12.30;99.90
13433;DHT22;6789;47.678;9.158;2023-04-24T18:28:34;12.20;99.90
13433;DHT22;6789;47.678;9.158;2023-04-24T18:33:40;12.10;99.90
13433;DHT22;6789;47.678;9.158;2023-04-24T18:38:46;12.00;99.90
13433;DHT22;6789;47.678;9.158;2023-04-24T18:43:39;11.90;99.90
13433;DHT22;6789;47.678;9.158;2023-04-24T18:48:32;11.70;99.90
13433;DHT22;6789;47.678;9.158;2023-04-24T18:53:38;11.60;99.90
13433;DHT22;6789;47.678;9.158;2023-04-24T18:58:31;11.40;99.90
13433;DHT22;6789;47.678;9.158;2023-04-24T19:03:23;11.30;99.90
13433;DHT22;6789;47.678;9.158;2023-04-24T19:08:15;11.20;99.90
13433;DHT22;6789;47.678;9.158;2023-04-24T19:13:07;11.10;99.90
13433;DHT22;6789;47.678;9.158;2023-04-24T19:17:59;11.00;99.90
13433;DHT22;6789;47.678;9.158;2023-04-24T19:22:51;11.00;99.90
13433;DHT22;6789;47.678;9.158;2023-04-24T19:27:44;10.90;99.90
13433;DHT22;6789;47.678;9.158;2023-04-24T19:32:37;10.80;99.90
13433;DHT22;6789;47.678;9.158;2023-04-24T19:37:30;10.80;99.90
13433;DHT22;6789;47.678;9.158;2023-04-24T19:42:30;10.80;99.90
13433;DHT22;6789;47.678;9.158;2023-04-24T19:47:34;10.70;99.90
13433;DHT22;6789;47.678;9.158;2023-04-24T19:52:25;10.70;99.90
13433;DHT22;6789;47.678;9.158;2023-04-24T19:57:18;10.70;99.90
13433;DHT22;6789;47.678;9.158;2023-04-24T20:02:10;10.70;99.90
13433;DHT22;6789;47.678;9.158;2023-04-24T20:07:09;10.80;99.90
13433;DHT22;6789;47.678;9.158;2023-04-24T20:12:05;10.80;99.90
13433;DHT22;6789;47.678;9.158;2023-04-24T20:17:00;10.80;99.90
13433;DHT22;6789;47.678;9.158;2023-04-24T20:21:53;10.80;99.90
13433;DHT22;6789;47.678;9.158;2023-04-24T20:26:45;10.80;99.90
13433;DHT22;6789;47.678;9.158;2023-04-24T20:31:46;10.80;99.90
13433;DHT22;6789;47.678;9.158;2023-04-24T20:36:39;10.80;99.90
13433;DHT22;6789;47.678;9.158;2023-04-24T20:41:38;10.80;99.90
13433;DHT22;6789;47.678;9.158;2023-04-24T20:46:31;10.80;99.90
13433;DHT22;6789;47.678;9.158;2023-04-24T20:51:23;10.80;99.90
13433;DHT22;6789;47.678;9.158;2023-04-24T20:56:15;10.80;99.90
13433;DHT22;6789;47.678;9.158;2023-04-24T21:01:07;10.80;99.90
13433;DHT22;6789;47.678;9.158;2023-04-24T21:05:59;10.80;99.90
13433;DHT22;6789;47.678;9.158;2023-04-24T21:10:51;10.70;99.90
13433;DHT22;6789;47.678;9.158;2023-04-24T21:15:47;10.60;99.90
13433;DHT22;6789;47.678;9.158;2023-04-24T21:20:39;10.60;99.90
13433;DHT22;6789;47.678;9.158;2023-04-24T21:25:32;10.50;99.90
13433;DHT22;6789;47.678;9.158;2023-04-24T21:30:39;10.50;99.90
13433;DHT22;6789;47.678;9.158;2023-04-24T21:35:31;10.40;99.90
13433;DHT22;6789;47.678;9.158;2023-04-24T21:40:23;10.40;99.90
13433;DHT22;6789;47.678;9.158;2023-04-24T21:45:15;10.40;99.90
13433;DHT22;6789;47.678;9.158;2023-04-24T21:50:08;10.40;99.90
13433;DHT22;6789;47.678;9.158;2023-04-24T21:55:01;10.40;99.90
13433;DHT22;6789;47.678;9.158;2023-04-24T21:59:54;10.40;99.90
13433;DHT22;6789;47.678;9.158;2023-04-24T22:05:07;10.30;99.90
13433;DHT22;6789;47.678;9.158;2023-04-24T22:10:28;10.30;99.90
13433;DHT22;6789;47.678;9.158;2023-04-24T22:15:35;10.20;99.90
13433;DHT22;6789;47.678;9.158;2023-04-24T22:20:44;10.20;99.90
13433;DHT22;6789;47.678;9.158;2023-04-24T22:25:38;10.20;99.90
13433;DHT22;6789;47.678;9.158;2023-04-24T22:30:44;10.20;99.90
13433;DHT22;6789;47.678;9.158;2023-04-24T22:35:36;10.20;99.90
13433;DHT22;6789;47.678;9.158;2023-04-24T22:40:36;10.20;99.90
13433;DHT22;6789;47.678;9.158;2023-04-24T22:45:28;10.20;99.90
13433;DHT22;6789;47.678;9.158;2023-04-24T22:50:21;10.30;99.90
13433;DHT22;6789;47.678;9.158;2023-04-24T22:55:39;10.30;99.90
13433;DHT22;6789;47.678;9.158;2023-04-24T23:00:59;10.30;99.90
13433;DHT22;6789;47.678;9.158;2023-04-24T23:06:17;10.30;99.90
13433;DHT22;6789;47.678;9.158;2023-04-24T23:11:47;10.30;99.90
13433;DHT22;6789;47.678;9.158;2023-04-24T23:16:57;10.20;99.90
13433;DHT22;6789;47.678;9.158;2023-04-24T23:22:14;10.20;99.90
13433;DHT22;6789;47.678;9.158;2023-04-24T23:27:26;10.20;99.90
13433;DHT22;6789;47.678;9.158;2023-04-24T23:32:18;10.20;99.90
13433;DHT22;6789;47.678;9.158;2023-04-24T23:37:10;10.20;99.90
13433;DHT22;6789;47.678;9.158;2023-04-24T23:42:02;10.10;99.90
13433;DHT22;6789;47.678;9.158;2023-04-24T23:46:55;10.20;99.90
13433;DHT22;6789;47.678;9.158;2023-04-24T23:51:48;10.20;99.90
13433;DHT22;6789;47.678;9.158;2023-04-24T23:56:40;10.10;99.90
